Time;durP1;ratioP1;P1;durP2;ratioP2;P2;SDS_P1;SDS_P2;PMS_P1;PMS_P2;Temp;Humidity;BMP_temperature;BMP_pressure;BME280_temperature;BME280_humidity;BME280_pressure;Samples;Min_cycle;Max_cycle;Signal;HPM_P1;HPM_P2
2021/09/16 00:00:08;;;;;;;984.35;883.53;;;;;;;;;;4989819;28;20223;-80
2021/09/16 00:02:34;;;;;;;976.47;875.88;;;;;;;;;;4994569;28;20018;-79
2021/09/16 00:05:00;;;;;;;975.15;874.35;;;;;;;;;;5008510;28;20052;-80
2021/09/16 00:07:26;;;;;;;982.75;881.78;;;;;;;;;;5005953;28;20533;-80
2021/09/16 00:09:52;;;;;;;982.45;881.25;;;;;;;;;;5007155;28;20037;-80
2021/09/16 00:12:18;;;;;;;977.47;876.90;;;;;;;;;;5009002;28;20049;-80
2021/09/16 00:14:44;;;;;;;976.58;875.78;;;;;;;;;;5009237;28;20529;-80
2021/09/16 00:17:10;;;;;;;979.80;878.80;;;;;;;;;;4999083;28;20085;-79
2021/09/16 00:19:36;;;;;;;973.30;872.70;;;;;;;;;;4990800;28;20038;-80
2021/09/16 00:22:02;;;;;;;975.42;874.60;;;;;;;;;;5004431;28;20022;-80
2021/09/16 00:24:28;;;;;;;980.90;879.90;;;;;;;;;;4990270;28;20045;-80
2021/09/16 00:26:54;;;;;;;968.03;867.70;;;;;;;;;;4997929;28;20036;-80
2021/09/16 00:29:20;;;;;;;975.58;874.85;;;;;;;;;;4991047;28;20121;-79
2021/09/16 00:31:46;;;;;;;972.55;872.10;;;;;;;;;;5012117;28;20033;-80
2021/09/16 00:34:12;;;;;;;977.55;876.83;;;;;;;;;;5008818;28;20118;-81
2021/09/16 00:36:38;;;;;;;979.65;878.85;;;;;;;;;;5008089;28;20037;-80
2021/09/16 00:39:04;;;;;;;979.22;878.38;;;;;;;;;;5008467;28;20112;-80
2021/09/16 00:41:31;;;;;;;982.65;881.75;;;;;;;;;;5007309;28;20478;-80
2021/09/16 00:43:57;;;;;;;980.53;879.75;;;;;;;;;;5009626;28;20379;-80
2021/09/16 00:46:23;;;;;;;979.85;879.28;;;;;;;;;;4996698;28;20105;-80
2021/09/16 00:48:49;;;;;;;990.92;889.47;;;;;;;;;;5000558;28;20111;-79
2021/09/16 00:51:15;;;;;;;984.08;882.97;;;;;;;;;;4991906;28;20109;-79
2021/09/16 00:53:41;;;;;;;978.85;877.97;;;;;;;;;;5008958;28;20042;-79
2021/09/16 00:56:08;;;;;;;979.55;878.55;;;;;;;;;;4995694;28;20054;-79
2021/09/16 00:58:38;;;;;;;974.63;873.97;;;;;;;;;;5009397;28;20440;-80
2021/09/16 01:01:04;;;;;;;972.15;871.65;;;;;;;;;;5008495;28;20033;-80
2021/09/16 01:03:30;;;;;;;975.08;874.38;;;;;;;;;;5009281;28;20045;-79
2021/09/16 01:05:56;;;;;;;974.35;873.58;;;;;;;;;;5018520;28;20029;-80
2021/09/16 01:08:23;;;;;;;987.15;885.83;;;;;;;;;;5007368;28;20121;-80
2021/09/16 01:10:49;;;;;;;987.08;885.53;;;;;;;;;;5007804;28;20038;-80
2021/09/16 01:13:15;;;;;;;979.22;878.22;;;;;;;;;;5006817;28;20038;-80
2021/09/16 01:15:42;;;;;;;980.22;879.22;;;;;;;;;;5006679;28;20040;-79
2021/09/16 01:18:08;;;;;;;982.25;881.10;;;;;;;;;;5005953;28;20022;-79
2021/09/16 01:20:34;;;;;;;983.15;881.88;;;;;;;;;;5005550;28;20018;-80
2021/09/16 01:23:00;;;;;;;979.42;878.28;;;;;;;;;;5007578;28;20394;-80
2021/09/16 01:25:32;;;;;;;974.35;873.55;;;;;;;;;;5006770;28;20029;-80
2021/09/16 01:27:58;;;;;;;973.60;872.78;;;;;;;;;;5004696;28;20541;-80
2021/09/16 01:30:25;;;;;;;976.92;876.33;;;;;;;;;;5007271;28;20061;-80
2021/09/16 01:32:51;;;;;;;984.25;883.15;;;;;;;;;;5004328;28;20068;-78
2021/09/16 01:35:17;;;;;;;974.83;874.03;;;;;;;;;;4993670;28;20022;-80
2021/09/16 01:37:44;;;;;;;977.20;876.30;;;;;;;;;;5006519;28;20022;-78
2021/09/16 01:40:10;;;;;;;969.97;869.47;;;;;;;;;;5008625;28;20437;-79
2021/09/16 01:42:40;;;;;;;986.05;884.67;;;;;;;;;;5006393;28;20034;-78
2021/09/16 01:45:12;;;;;;;974.25;873.75;;;;;;;;;;5007833;28;20022;-80
2021/09/16 01:47:38;;;;;;;983.78;882.40;;;;;;;;;;5000128;28;20038;-79
2021/09/16 01:50:04;;;;;;;983.38;882.38;;;;;;;;;;4989186;28;20037;-80
2021/09/16 01:52:30;;;;;;;976.83;876.28;;;;;;;;;;5001080;28;20065;-80
2021/09/16 01:54:56;;;;;;;984.47;883.35;;;;;;;;;;5008931;28;20022;-80
2021/09/16 01:57:22;;;;;;;982.53;881.58;;;;;;;;;;5008970;28;20034;-80
2021/09/16 01:59:48;;;;;;;980.40;879.50;;;;;;;;;;5006128;28;20112;-79
2021/09/16 02:02:14;;;;;;;980.80;879.72;;;;;;;;;;5006579;28;20030;-80
2021/09/16 02:04:40;;;;;;;977.33;876.55;;;;;;;;;;5004432;28;20091;-80
2021/09/16 02:07:06;;;;;;;975.67;875.08;;;;;;;;;;5008237;28;20112;-80
2021/09/16 02:09:32;;;;;;;983.40;882.40;;;;;;;;;;5005740;28;20477;-79
2021/09/16 02:11:58;;;;;;;987.20;885.83;;;;;;;;;;5008494;28;20046;-79
2021/09/16 02:14:24;;;;;;;981.63;880.75;;;;;;;;;;5021287;28;20065;-79
2021/09/16 02:16:50;;;;;;;976.45;875.65;;;;;;;;;;5005774;28;20033;-80
2021/09/16 02:19:16;;;;;;;991.20;889.78;;;;;;;;;;5002581;28;20081;-80
2021/09/16 02:21:42;;;;;;;990.33;888.97;;;;;;;;;;5006617;28;20397;-79
2021/09/16 02:24:09;;;;;;;988.22;887.10;;;;;;;;;;5005324;28;20081;-82
2021/09/16 02:26:35;;;;;;;975.63;875.13;;;;;;;;;;5003257;28;20038;-80
2021/09/16 02:29:01;;;;;;;975.97;875.40;;;;;;;;;;5007599;28;20030;-79
2021/09/16 02:31:27;;;;;;;986.72;885.35;;;;;;;;;;5001215;28;20034;-80
2021/09/16 02:33:53;;;;;;;982.30;881.42;;;;;;;;;;4986711;28;20054;-79
2021/09/16 02:36:19;;;;;;;985.33;883.25;;;;;;;;;;5005182;28;20037;-80
2021/09/16 02:38:45;;;;;;;981.22;880.28;;;;;;;;;;5007753;28;20053;-79
2021/09/16 02:41:11;;;;;;;985.05;884.05;;;;;;;;;;5005422;28;20030;-80
2021/09/16 02:43:37;;;;;;;982.47;881.35;;;;;;;;;;5006385;28;20514;-80
2021/09/16 02:46:03;;;;;;;978.65;877.53;;;;;;;;;;5010825;28;20041;-77
2021/09/16 02:48:29;;;;;;;975.08;874.22;;;;;;;;;;5030947;28;20028;-77
2021/09/16 02:50:55;;;;;;;972.88;872.33;;;;;;;;;;5015985;28;20022;-76
2021/09/16 02:53:21;;;;;;;974.33;873.65;;;;;;;;;;5005845;28;20029;-77
2021/09/16 02:55:47;;;;;;;981.72;880.65;;;;;;;;;;5008506;28;20029;-79
2021/09/16 02:58:13;;;;;;;972.08;871.28;;;;;;;;;;5011690;28;20101;-80
2021/09/16 03:00:39;;;;;;;970.78;870.22;;;;;;;;;;5009717;28;20034;-78
2021/09/16 03:03:06;;;;;;;981.33;880.30;;;;;;;;;;5010648;28;20025;-79
2021/09/16 03:05:32;;;;;;;967.35;867.05;;;;;;;;;;5005866;28;20256;-78
2021/09/16 03:07:58;;;;;;;967.20;866.90;;;;;;;;;;5008556;28;20030;-78
2021/09/16 03:10:24;;;;;;;969.20;868.80;;;;;;;;;;5009389;28;20108;-79
2021/09/16 03:12:50;;;;;;;972.72;872.40;;;;;;;;;;4997501;28;20060;-79
2021/09/16 03:15:16;;;;;;;972.45;872.00;;;;;;;;;;4990295;28;20026;-79
2021/09/16 03:17:42;;;;;;;965.30;864.45;;;;;;;;;;5000355;28;20040;-78
2021/09/16 03:20:09;;;;;;;976.40;875.45;;;;;;;;;;5012733;28;20029;-78
2021/09/16 03:22:35;;;;;;;962.75;862.63;;;;;;;;;;5019546;28;20036;-78
2021/09/16 03:25:01;;;;;;;962.40;862.22;;;;;;;;;;5010912;28;20021;-77
2021/09/16 03:27:27;;;;;;;962.47;862.17;;;;;;;;;;5006390;28;20037;-81
2021/09/16 03:29:53;;;;;;;970.90;870.15;;;;;;;;;;5010291;28;20022;-79
2021/09/16 03:32:19;;;;;;;963.05;862.70;;;;;;;;;;5010157;28;20478;-79
2021/09/16 03:34:45;;;;;;;958.83;858.72;;;;;;;;;;5010233;28;20065;-79
2021/09/16 03:37:11;;;;;;;964.58;864.35;;;;;;;;;;5008355;28;20056;-80
2021/09/16 03:39:37;;;;;;;971.88;871.10;;;;;;;;;;5009480;28;20029;-78
2021/09/16 03:42:03;;;;;;;971.25;870.45;;;;;;;;;;5008180;28;20065;-79
2021/09/16 03:44:29;;;;;;;967.35;867.05;;;;;;;;;;5005978;28;20134;-79
2021/09/16 03:46:55;;;;;;;957.22;857.30;;;;;;;;;;4992181;28;20041;-79
2021/09/16 03:49:20;;;;;;;967.53;867.05;;;;;;;;;;5005965;28;20514;-79
2021/09/16 03:51:46;;;;;;;971.75;869.80;;;;;;;;;;4989861;28;20219;-79
2021/09/16 03:54:12;;;;;;;970.83;870.35;;;;;;;;;;5006350;28;20496;-78
2021/09/16 03:56:38;;;;;;;972.17;871.60;;;;;;;;;;5004170;28;20557;-79
2021/09/16 03:59:04;;;;;;;973.17;872.40;;;;;;;;;;5009655;28;20032;-79
2021/09/16 04:01:30;;;;;;;977.53;876.80;;;;;;;;;;5008924;28;20422;-79
2021/09/16 04:03:56;;;;;;;973.88;873.08;;;;;;;;;;5005215;28;20494;-79
2021/09/16 04:06:22;;;;;;;976.58;875.65;;;;;;;;;;4998556;28;20018;-78
2021/09/16 04:08:48;;;;;;;967.08;866.67;;;;;;;;;;5008497;28;20414;-80
2021/09/16 04:11:14;;;;;;;970.85;870.28;;;;;;;;;;5012617;28;20079;-79
2021/09/16 04:13:40;;;;;;;968.92;868.67;;;;;;;;;;5012926;28;20030;-79
2021/09/16 04:16:06;;;;;;;976.60;875.72;;;;;;;;;;4990703;28;20057;-78
2021/09/16 04:18:32;;;;;;;974.67;874.00;;;;;;;;;;5003701;28;20026;-79
2021/09/16 04:20:58;;;;;;;979.30;878.60;;;;;;;;;;5007619;28;20025;-80
2021/09/16 04:23:24;;;;;;;973.03;872.53;;;;;;;;;;5007763;28;20104;-79
2021/09/16 04:25:50;;;;;;;978.38;877.70;;;;;;;;;;5006771;28;20026;-79
2021/09/16 04:28:16;;;;;;;971.60;871.13;;;;;;;;;;5007494;28;20034;-78
2021/09/16 04:30:42;;;;;;;977.25;876.53;;;;;;;;;;5007107;28;20039;-77
2021/09/16 04:33:08;;;;;;;971.83;871.35;;;;;;;;;;5007156;28;20084;-78
2021/09/16 04:35:34;;;;;;;976.40;875.55;;;;;;;;;;5005182;28;20457;-79
2021/09/16 04:38:00;;;;;;;971.50;871.00;;;;;;;;;;4990589;28;20026;-80
2021/09/16 04:40:27;;;;;;;973.97;873.38;;;;;;;;;;5007361;28;20474;-79
2021/09/16 04:42:53;;;;;;;977.08;876.35;;;;;;;;;;5007023;28;20033;-79
2021/09/16 04:45:19;;;;;;;968.70;868.25;;;;;;;;;;5007932;28;20030;-80
2021/09/16 04:47:45;;;;;;;972.97;872.20;;;;;;;;;;5008561;28;20022;-79
2021/09/16 04:50:11;;;;;;;969.22;868.92;;;;;;;;;;5005770;28;20465;-79
2021/09/16 04:52:38;;;;;;;974.35;873.10;;;;;;;;;;5007220;28;20041;-80
2021/09/16 04:55:04;;;;;;;969.72;869.08;;;;;;;;;;5006788;28;20485;-80
2021/09/16 04:57:30;;;;;;;969.90;869.40;;;;;;;;;;4986755;28;20088;-79
2021/09/16 04:59:56;;;;;;;977.72;876.88;;;;;;;;;;5002646;28;20030;-82
2021/09/16 05:02:22;;;;;;;976.28;875.60;;;;;;;;;;5012392;28;20018;-83
2021/09/16 05:04:48;;;;;;;978.53;877.83;;;;;;;;;;4996427;28;20037;-82
2021/09/16 05:07:14;;;;;;;981.72;880.95;;;;;;;;;;4989376;28;20030;-82
2021/09/16 05:09:43;;;;;;;973.38;872.67;;;;;;;;;;5008210;28;20045;-82
2021/09/16 05:12:09;;;;;;;975.47;874.88;;;;;;;;;;5007948;28;20046;-83
2021/09/16 05:14:35;;;;;;;979.78;879.10;;;;;;;;;;5006632;28;20022;-83
2021/09/16 05:17:01;;;;;;;983.78;882.63;;;;;;;;;;5007929;28;20029;-83
2021/09/16 05:19:27;;;;;;;973.03;872.63;;;;;;;;;;5006439;28;20650;-81
2021/09/16 05:21:54;;;;;;;975.08;874.63;;;;;;;;;;5006844;28;20052;-81
2021/09/16 05:24:20;;;;;;;979.33;878.67;;;;;;;;;;5005948;28;20025;-82
2021/09/16 05:26:47;;;;;;;971.92;871.53;;;;;;;;;;5005484;28;20017;-82
2021/09/16 05:29:13;;;;;;;977.55;876.80;;;;;;;;;;5006390;28;20022;-81
2021/09/16 05:31:39;;;;;;;981.63;880.78;;;;;;;;;;5007221;28;20022;-81
2021/09/16 05:34:06;;;;;;;988.10;886.92;;;;;;;;;;5003224;28;20702;-82
2021/09/16 05:36:33;;;;;;;983.80;882.80;;;;;;;;;;4997475;28;20136;-82
2021/09/16 05:38:59;;;;;;;980.58;879.78;;;;;;;;;;5007688;28;20612;-83
2021/09/16 05:41:25;;;;;;;981.05;880.40;;;;;;;;;;5006114;28;20117;-82
2021/09/16 05:43:51;;;;;;;979.72;879.10;;;;;;;;;;5007186;28;20533;-82
2021/09/16 05:46:18;;;;;;;976.75;876.45;;;;;;;;;;5006435;28;20053;-82
2021/09/16 05:48:44;;;;;;;983.15;882.42;;;;;;;;;;5005709;28;20037;-83
2021/09/16 05:51:10;;;;;;;978.72;878.30;;;;;;;;;;5006487;28;20017;-82
2021/09/16 05:53:37;;;;;;;983.50;882.83;;;;;;;;;;5007875;28;20029;-83
2021/09/16 05:56:03;;;;;;;973.70;873.40;;;;;;;;;;5002706;28;20301;-83
2021/09/16 05:58:29;;;;;;;982.45;881.75;;;;;;;;;;4994365;28;20022;-84
2021/09/16 06:00:55;;;;;;;976.80;876.40;;;;;;;;;;4992520;28;20030;-82
2021/09/16 06:03:21;;;;;;;982.78;882.17;;;;;;;;;;5007291;28;20026;-83
2021/09/16 06:05:48;;;;;;;989.28;888.40;;;;;;;;;;5001666;28;20029;-84
2021/09/16 06:08:14;;;;;;;979.95;879.35;;;;;;;;;;5018376;28;20392;-82
2021/09/16 06:10:40;;;;;;;986.50;885.65;;;;;;;;;;5004620;28;20525;-83
2021/09/16 06:13:06;;;;;;;984.92;884.05;;;;;;;;;;5018788;28;20037;-85
2021/09/16 06:15:32;;;;;;;991.20;890.20;;;;;;;;;;5005537;28;20022;-82
2021/09/16 06:17:58;;;;;;;992.30;891.20;;;;;;;;;;5021406;28;20018;-82
2021/09/16 06:20:24;;;;;;;984.75;884.17;;;;;;;;;;5009148;28;20441;-82
2021/09/16 06:22:50;;;;;;;994.00;892.80;;;;;;;;;;5008816;28;20080;-83
2021/09/16 06:25:19;;;;;;;995.72;894.33;;;;;;;;;;5013788;28;20390;-80
2021/09/16 06:27:46;;;;;;;988.97;888.00;;;;;;;;;;5012903;28;20026;-82
2021/09/16 06:30:12;;;;;;;988.03;887.13;;;;;;;;;;5020259;28;20070;-82
2021/09/16 06:32:38;;;;;;;990.67;889.67;;;;;;;;;;5007884;28;20046;-81
2021/09/16 06:35:07;;;;;;;993.40;892.25;;;;;;;;;;5005953;28;20061;-80
2021/09/16 06:37:34;;;;;;;992.17;891.25;;;;;;;;;;4995903;28;20619;-82
2021/09/16 06:40:01;;;;;;;990.58;889.60;;;;;;;;;;4986832;28;20030;-81
2021/09/16 06:42:27;;;;;;;990.10;889.40;;;;;;;;;;4998208;28;20037;-81
2021/09/16 06:44:58;;;;;;;993.92;892.97;;;;;;;;;;5007851;28;20030;-82
2021/09/16 06:47:24;;;;;;;1005.42;903.67;;;;;;;;;;5006471;28;20041;-81
2021/09/16 06:49:50;;;;;;;998.47;897.45;;;;;;;;;;5007495;28;20042;-81
2021/09/16 06:52:22;;;;;;;1003.47;902.08;;;;;;;;;;5008165;28;20128;-79
2021/09/16 06:54:48;;;;;;;1005.28;903.75;;;;;;;;;;5008242;28;20033;-81
2021/09/16 06:57:14;;;;;;;1009.33;907.75;;;;;;;;;;4999245;28;20477;-81
2021/09/16 06:59:44;;;;;;;998.78;897.88;;;;;;;;;;5002347;28;20054;-81
2021/09/16 07:02:11;;;;;;;996.58;895.67;;;;;;;;;;5013647;28;20101;-80
2021/09/16 07:04:37;;;;;;;1004.20;902.97;;;;;;;;;;5002873;28;20037;-82
2021/09/16 07:07:04;;;;;;;1004.28;902.97;;;;;;;;;;5005770;28;20026;-79
2021/09/16 07:09:31;;;;;;;1007.53;906.15;;;;;;;;;;4994417;28;20033;-82
2021/09/16 07:11:57;;;;;;;1010.72;909.28;;;;;;;;;;4998623;28;20069;-82
2021/09/16 07:14:27;;;;;;;1010.72;909.03;;;;;;;;;;5019050;28;20030;-80
2021/09/16 07:16:56;;;;;;;1009.53;908.03;;;;;;;;;;5004855;28;20481;-79
2021/09/16 07:19:22;;;;;;;1010.58;908.92;;;;;;;;;;5005374;28;20039;-81
2021/09/16 07:21:49;;;;;;;1012.42;908.35;;;;;;;;;;5007304;28;20456;-81
2021/09/16 07:24:16;;;;;;;1002.95;901.83;;;;;;;;;;5002930;28;20056;-79
2021/09/16 07:26:43;;;;;;;1004.80;903.80;;;;;;;;;;5018069;28;20025;-80
2021/09/16 07:29:09;;;;;;;1007.28;906.10;;;;;;;;;;5003073;28;20041;-83
2021/09/16 07:31:35;;;;;;;1016.50;914.85;;;;;;;;;;5000023;28;20057;-80
2021/09/16 07:34:01;;;;;;;1012.55;911.25;;;;;;;;;;5010996;28;20124;-79
2021/09/16 07:36:27;;;;;;;1013.67;912.17;;;;;;;;;;5004264;28;20017;-81
2021/09/16 07:38:55;;;;;;;1016.88;915.30;;;;;;;;;;5010036;28;20030;-80
2021/09/16 07:41:22;;;;;;;1017.13;915.72;;;;;;;;;;5008259;28;20061;-81
2021/09/16 07:43:48;;;;;;;1026.57;924.60;;;;;;;;;;4976170;28;20062;-80
2021/09/16 07:46:14;;;;;;;1022.63;920.83;;;;;;;;;;4975693;28;20038;-81
2021/09/16 07:48:40;;;;;;;1022.85;921.25;;;;;;;;;;4978124;28;20490;-81
2021/09/16 07:51:06;;;;;;;1023.00;921.38;;;;;;;;;;4972305;28;20035;-80
2021/09/16 07:53:32;;;;;;;1019.85;918.30;;;;;;;;;;4988145;28;20073;-81
2021/09/16 07:55:59;;;;;;;1020.13;918.55;;;;;;;;;;4967645;28;20092;-80
2021/09/16 07:58:25;;;;;;;1021.22;919.67;;;;;;;;;;4969963;28;20129;-79
2021/09/16 08:00:56;;;;;;;1025.45;923.75;;;;;;;;;;4972196;28;20034;-81
2021/09/16 08:03:22;;;;;;;1022.28;920.70;;;;;;;;;;4972089;28;20473;-80
2021/09/16 08:05:48;;;;;;;1023.35;918.50;;;;;;;;;;4983849;28;20034;-81
2021/09/16 08:08:14;;;;;;;1025.30;923.55;;;;;;;;;;4983960;28;20072;-80
2021/09/16 08:10:40;;;;;;;1025.20;923.40;;;;;;;;;;4984109;28;20041;-80
2021/09/16 08:13:06;;;;;;;1024.88;923.13;;;;;;;;;;4979169;28;20598;-81
2021/09/16 08:15:32;;;;;;;1028.25;926.58;;;;;;;;;;4999087;28;20533;-82
2021/09/16 08:17:59;;;;;;;1041.47;938.97;;;;;;;;;;5006474;28;20402;-82
2021/09/16 08:23:10;;;;;;;1039.72;937.58;;;;;;;;;;5005002;28;20112;-82
2021/09/16 08:25:36;;;;;;;1056.45;953.03;;;;;;;;;;5005095;28;20410;-84
2021/09/16 08:28:02;;;;;;;1050.60;948.03;;;;;;;;;;5007918;28;20056;-82
2021/09/16 08:30:28;;;;;;;1064.20;960.92;;;;;;;;;;5010401;28;20025;-81
2021/09/16 08:32:54;;;;;;;1051.95;949.35;;;;;;;;;;4995816;28;20121;-80
2021/09/16 08:35:20;;;;;;;1069.35;965.85;;;;;;;;;;5013360;28;20542;-80
2021/09/16 08:37:47;;;;;;;1080.38;976.38;;;;;;;;;;5003286;28;20053;-79
2021/09/16 08:40:13;;;;;;;1090.50;986.15;;;;;;;;;;5013119;28;20026;-83
2021/09/16 08:42:41;;;;;;;1096.45;991.97;;;;;;;;;;5013379;28;20030;-80
2021/09/16 08:45:08;;;;;;;1111.38;999.70;;;;;;;;;;5007874;28;20037;-84
2021/09/16 08:47:37;;;;;;;1111.18;999.90;;;;;;;;;;5007525;28;20038;-82
2021/09/16 08:50:03;;;;;;;1108.45;999.22;;;;;;;;;;5004702;28;20113;-80
2021/09/16 08:52:32;;;;;;;1122.00;999.90;;;;;;;;;;5004084;28;20029;-80
2021/09/16 08:54:58;;;;;;;1120.93;999.90;;;;;;;;;;5009418;28;20013;-80
2021/09/16 08:57:24;;;;;;;1121.35;999.90;;;;;;;;;;5009042;28;20079;-78
2021/09/16 08:59:50;;;;;;;1114.40;999.90;;;;;;;;;;5007686;28;20026;-78
2021/09/16 09:02:16;;;;;;;1110.93;999.90;;;;;;;;;;5008805;28;20021;-79
2021/09/16 09:04:42;;;;;;;1111.60;999.90;;;;;;;;;;5008120;28;20294;-80
2021/09/16 09:07:08;;;;;;;1107.95;999.22;;;;;;;;;;5009908;28;20108;-78
2021/09/16 09:09:35;;;;;;;1099.38;994.40;;;;;;;;;;5010247;28;20036;-80
2021/09/16 09:12:02;;;;;;;1090.28;986.40;;;;;;;;;;5009495;28;20413;-77
2021/09/16 09:14:28;;;;;;;1093.65;989.42;;;;;;;;;;5003057;28;20018;-78
2021/09/16 09:16:55;;;;;;;1084.55;981.05;;;;;;;;;;5034501;28;20029;-77
2021/09/16 09:19:23;;;;;;;1081.93;978.40;;;;;;;;;;5006982;28;20026;-78
2021/09/16 09:21:49;;;;;;;1086.55;980.80;;;;;;;;;;5001953;28;20033;-77
2021/09/16 09:24:28;;;;;;;1083.00;979.28;;;;;;;;;;5007951;28;20100;-76
2021/09/16 09:26:54;;;;;;;1081.57;978.10;;;;;;;;;;5005800;28;20705;-77
2021/09/16 09:29:20;;;;;;;1091.72;987.60;;;;;;;;;;5007380;28;20105;-77
2021/09/16 09:32:03;;;;;;;1092.63;988.45;;;;;;;;;;5007524;28;20514;-77
2021/09/16 09:34:30;;;;;;;1083.15;979.50;;;;;;;;;;4999162;28;20029;-76
2021/09/16 09:37:08;;;;;;;1089.22;985.33;;;;;;;;;;5006240;28;20045;-76
2021/09/16 09:39:36;;;;;;;1071.90;968.90;;;;;;;;;;5006403;28;20018;-77
2021/09/16 09:42:19;;;;;;;1067.15;964.17;;;;;;;;;;5007393;28;20013;-78
2021/09/16 09:44:45;;;;;;;1063.03;960.28;;;;;;;;;;5038737;28;20136;-77
2021/09/16 09:47:11;;;;;;;1070.03;966.83;;;;;;;;;;5006481;28;20080;-79
2021/09/16 09:49:38;;;;;;;1079.28;975.88;;;;;;;;;;5000335;28;20017;-77
2021/09/16 09:52:04;;;;;;;1089.95;986.17;;;;;;;;;;5008949;28;20057;-77
2021/09/16 09:54:32;;;;;;;1100.60;995.65;;;;;;;;;;5005485;28;20370;-77
2021/09/16 09:56:58;;;;;;;1103.07;997.60;;;;;;;;;;5006742;28;20026;-77
2021/09/16 09:59:25;;;;;;;1101.82;996.78;;;;;;;;;;5008586;28;20481;-78
2021/09/16 10:02:12;;;;;;;1101.93;996.72;;;;;;;;;;5004582;28;20068;-76
2021/09/16 10:04:37;;;;;;;1089.43;985.70;;;;;;;;;;5004686;28;20145;-77
2021/09/16 10:07:03;;;;;;;1090.57;986.72;;;;;;;;;;5007986;28;20120;-78
2021/09/16 10:09:29;;;;;;;1093.50;989.60;;;;;;;;;;5008854;28;20037;-79
2021/09/16 10:11:58;;;;;;;1095.15;991.08;;;;;;;;;;5006810;28;20053;-84
2021/09/16 10:14:24;;;;;;;1094.15;990.15;;;;;;;;;;5007089;28;20033;-78
2021/09/16 10:16:51;;;;;;;1092.18;988.42;;;;;;;;;;5010309;28;20394;-77
2021/09/16 10:19:18;;;;;;;1096.25;992.10;;;;;;;;;;5007797;28;20033;-78
2021/09/16 10:21:44;;;;;;;1091.20;987.38;;;;;;;;;;5008287;28;20017;-80
2021/09/16 10:24:13;;;;;;;1091.57;987.60;;;;;;;;;;5007991;28;20033;-79
2021/09/16 10:26:39;;;;;;;1089.93;986.25;;;;;;;;;;5007164;28;20022;-80
2021/09/16 10:29:07;;;;;;;1093.45;989.40;;;;;;;;;;5010586;28;20116;-79
2021/09/16 10:31:33;;;;;;;1103.88;997.78;;;;;;;;;;5005254;28;20032;-79
2021/09/16 10:33:59;;;;;;;1104.22;997.50;;;;;;;;;;5003891;28;20068;-78
2021/09/16 10:36:25;;;;;;;1105.80;998.50;;;;;;;;;;5003156;28;20037;-80
2021/09/16 10:38:53;;;;;;;1103.15;997.35;;;;;;;;;;5006826;28;20014;-82
2021/09/16 10:41:24;;;;;;;1101.00;995.97;;;;;;;;;;4999750;28;21762;-79
2021/09/16 10:44:10;;;;;;;1093.70;989.88;;;;;;;;;;5011741;28;20666;-78
2021/09/16 10:46:43;;;;;;;1094.35;990.55;;;;;;;;;;5002772;28;20109;-80
2021/09/16 10:49:21;;;;;;;1096.68;992.70;;;;;;;;;;5005115;28;20036;-81
2021/09/16 10:52:07;;;;;;;1095.03;989.88;;;;;;;;;;5007167;28;20105;-79
2021/09/16 10:54:35;;;;;;;1091.95;988.15;;;;;;;;;;5023346;28;20277;-81
2021/09/16 10:57:15;;;;;;;1105.28;998.30;;;;;;;;;;5009638;28;20550;-80
2021/09/16 10:59:53;;;;;;;1102.07;996.58;;;;;;;;;;5002913;28;20048;-81
2021/09/16 11:02:20;;;;;;;1104.40;997.95;;;;;;;;;;5013858;28;20030;-81
2021/09/16 11:04:55;;;;;;;1107.53;998.97;;;;;;;;;;5022130;28;20482;-79
2021/09/16 11:07:39;;;;;;;1101.38;996.33;;;;;;;;;;5014252;28;20026;-80
2021/09/16 11:10:21;;;;;;;1092.30;988.53;;;;;;;;;;5014814;28;20022;-81
2021/09/16 11:12:48;;;;;;;1077.30;974.10;;;;;;;;;;5013537;28;20108;-79
2021/09/16 11:15:17;;;;;;;1098.43;994.17;;;;;;;;;;5009421;28;20054;-81
2021/09/16 11:17:44;;;;;;;1095.07;991.15;;;;;;;;;;4995469;28;20125;-79
2021/09/16 11:20:12;;;;;;;1091.35;987.80;;;;;;;;;;5006839;28;20037;-80
2021/09/16 11:22:38;;;;;;;1080.75;975.70;;;;;;;;;;5009184;28;20395;-79
2021/09/16 11:25:05;;;;;;;1088.35;984.63;;;;;;;;;;5021179;28;20026;-81
2021/09/16 11:27:33;;;;;;;1081.78;978.45;;;;;;;;;;5012801;28;20405;-82
2021/09/16 11:29:59;;;;;;;1101.35;996.05;;;;;;;;;;5010413;28;20030;-82
2021/09/16 11:32:32;;;;;;;1104.60;998.60;;;;;;;;;;5006100;28;20096;-79
2021/09/16 11:35:14;;;;;;;1108.28;999.10;;;;;;;;;;5017580;28;20359;-80
2021/09/16 11:37:42;;;;;;;1116.10;999.90;;;;;;;;;;4994256;28;20037;-79
2021/09/16 11:40:10;;;;;;;1118.63;999.90;;;;;;;;;;5007710;28;20022;-80
2021/09/16 11:42:38;;;;;;;1115.82;999.90;;;;;;;;;;5012728;28;20022;-81
2021/09/16 11:45:04;;;;;;;1107.50;998.95;;;;;;;;;;5009857;28;20071;-79
2021/09/16 11:47:30;;;;;;;1106.13;999.00;;;;;;;;;;5011663;28;20030;-80
2021/09/16 11:49:57;;;;;;;1121.05;999.90;;;;;;;;;;5007825;28;20109;-79
2021/09/16 11:52:23;;;;;;;1129.90;999.90;;;;;;;;;;5008053;28;20030;-78
2021/09/16 11:55:03;;;;;;;1153.63;999.90;;;;;;;;;;5006782;28;20037;-81
2021/09/16 11:57:29;;;;;;;1190.60;999.90;;;;;;;;;;4990484;28;20026;-79
2021/09/16 11:59:55;;;;;;;1234.65;999.90;;;;;;;;;;5000319;28;20401;-80
2021/09/16 12:02:21;;;;;;;1246.53;999.90;;;;;;;;;;5009917;28;20093;-78
2021/09/16 12:04:48;;;;;;;1260.22;999.90;;;;;;;;;;4996277;28;20097;-81
2021/09/16 12:07:19;;;;;;;1277.68;999.90;;;;;;;;;;5002362;28;20029;-78
2021/09/16 12:09:45;;;;;;;1311.82;999.90;;;;;;;;;;5014229;28;20053;-78
2021/09/16 12:12:11;;;;;;;1325.68;999.90;;;;;;;;;;5002578;28;20406;-77
2021/09/16 12:14:37;;;;;;;1316.50;999.90;;;;;;;;;;5013747;28;20076;-78
2021/09/16 12:17:04;;;;;;;1298.18;999.90;;;;;;;;;;5005742;28;20018;-79
2021/09/16 12:19:30;;;;;;;1284.50;999.90;;;;;;;;;;5007477;28;20033;-78
2021/09/16 12:21:57;;;;;;;1259.10;999.90;;;;;;;;;;5003587;28;20026;-78
2021/09/16 12:24:27;;;;;;;1232.00;999.90;;;;;;;;;;5007911;28;21308;-78
2021/09/16 12:26:54;;;;;;;1212.78;999.90;;;;;;;;;;5009768;28;20032;-79
2021/09/16 12:29:23;;;;;;;1205.30;999.90;;;;;;;;;;5009842;28;20053;-79
2021/09/16 12:31:55;;;;;;;1182.77;999.90;;;;;;;;;;5007216;28;20026;-79
2021/09/16 12:34:21;;;;;;;1167.63;999.90;;;;;;;;;;5003556;28;20092;-77
2021/09/16 12:36:54;;;;;;;1168.07;999.90;;;;;;;;;;5004926;28;20022;-79
2021/09/16 12:39:21;;;;;;;1161.45;999.90;;;;;;;;;;5004009;28;20033;-79
2021/09/16 12:41:50;;;;;;;1142.13;999.90;;;;;;;;;;5011883;28;21268;-78
2021/09/16 12:44:18;;;;;;;1152.15;999.90;;;;;;;;;;5021088;28;20034;-81
2021/09/16 12:46:49;;;;;;;1149.55;999.90;;;;;;;;;;4992843;28;20057;-79
2021/09/16 12:49:22;;;;;;;1142.90;999.90;;;;;;;;;;5004263;28;20478;-80
2021/09/16 12:51:53;;;;;;;1149.35;999.90;;;;;;;;;;5006788;28;20111;-78
2021/09/16 12:54:20;;;;;;;1143.30;999.90;;;;;;;;;;5005659;28;20026;-77
2021/09/16 12:56:46;;;;;;;1142.65;999.90;;;;;;;;;;4996973;28;20497;-77
2021/09/16 12:59:19;;;;;;;1138.47;999.90;;;;;;;;;;5007503;28;20018;-77
2021/09/16 13:01:46;;;;;;;1137.13;999.90;;;;;;;;;;5006470;28;20447;-78
2021/09/16 13:04:12;;;;;;;1135.53;999.90;;;;;;;;;;5004976;28;20425;-77
2021/09/16 13:06:38;;;;;;;1131.28;999.90;;;;;;;;;;5003347;28;20034;-78
2021/09/16 13:09:04;;;;;;;1138.82;999.90;;;;;;;;;;5011051;28;20026;-77
2021/09/16 13:11:31;;;;;;;1136.60;999.90;;;;;;;;;;5008338;28;20056;-78
2021/09/16 13:14:06;;;;;;;1135.25;999.90;;;;;;;;;;5008726;28;20060;-78
2021/09/16 13:16:32;;;;;;;1141.88;999.90;;;;;;;;;;5012891;28;20026;-81
2021/09/16 13:18:58;;;;;;;1138.32;999.90;;;;;;;;;;5006077;28;20171;-78
2021/09/16 13:21:24;;;;;;;1142.55;999.90;;;;;;;;;;5004877;28;20061;-79
2021/09/16 13:23:50;;;;;;;1136.00;999.90;;;;;;;;;;5007303;28;20041;-76
2021/09/16 13:26:16;;;;;;;1145.63;999.90;;;;;;;;;;5001518;28;20038;-79
2021/09/16 13:28:42;;;;;;;1147.38;999.90;;;;;;;;;;5010540;28;20037;-77
2021/09/16 13:31:08;;;;;;;1147.15;999.90;;;;;;;;;;5009442;28;20024;-78
2021/09/16 13:33:35;;;;;;;1143.63;999.90;;;;;;;;;;5010737;28;20048;-76
2021/09/16 13:36:01;;;;;;;1144.63;999.90;;;;;;;;;;5006464;28;20045;-78
2021/09/16 13:38:27;;;;;;;1145.07;999.90;;;;;;;;;;5007155;28;20030;-77
2021/09/16 13:40:54;;;;;;;1138.07;999.90;;;;;;;;;;5005132;28;20386;-80
2021/09/16 13:43:20;;;;;;;1136.03;999.90;;;;;;;;;;5004377;28;20081;-77
2021/09/16 13:45:46;;;;;;;1143.88;999.90;;;;;;;;;;4997352;28;20060;-78
2021/09/16 13:48:13;;;;;;;1135.78;999.90;;;;;;;;;;5008506;28;20049;-77